createdAt,value
2023-04-01T00:01:24.281Z,5.38
2023-04-01T00:03:51.388Z,5.19
2023-04-01T00:06:20.034Z,5.07
2023-04-01T00:08:47.622Z,5.07
2023-04-01T00:11:16.003Z,4.95
2023-04-01T00:13:43.364Z,5.10
2023-04-01T00:16:19.852Z,5.00
2023-04-01T00:18:48.860Z,5.06
2023-04-01T00:21:16.198Z,5.07
2023-04-01T00:23:42.913Z,5.03
2023-04-01T00:26:10.537Z,5.12
2023-04-01T00:28:38.209Z,5.12
2023-04-01T00:31:10.122Z,5.25
2023-04-01T00:33:36.920Z,5.25
2023-04-01T00:36:18.098Z,5.24
2023-04-01T00:38:45.717Z,5.44
2023-04-01T00:41:17.977Z,5.48
2023-04-01T00:43:47.598Z,5.60
2023-04-01T00:46:14.295Z,5.67
2023-04-01T00:48:46.516Z,5.67
2023-04-01T00:51:18.540Z,5.70
2023-04-01T00:53:48.532Z,5.79
2023-04-01T00:56:31.373Z,5.91
2023-04-01T00:59:30.510Z,5.87
2023-04-01T01:01:57.376Z,5.97
2023-04-01T01:04:26.897Z,6.09
2023-04-01T01:06:56.928Z,6.49
2023-04-01T01:09:40.711Z,6.55
2023-04-01T01:12:14.295Z,6.27
2023-04-01T01:14:46.963Z,6.39
2023-04-01T01:17:41.893Z,6.46
2023-04-01T01:20:35.893Z,6.47
2023-04-01T01:23:06.480Z,6.33
2023-04-01T01:25:45.669Z,6.49
2023-04-01T01:28:45.608Z,6.57
2023-04-01T01:31:27.298Z,6.48
2023-04-01T01:34:17.486Z,6.56
2023-04-01T01:36:46.767Z,6.59
2023-04-01T01:39:14.943Z,6.63
2023-04-01T01:41:46.055Z,6.58
2023-04-01T01:44:16.267Z,6.51
2023-04-01T01:46:44.848Z,6.41
2023-04-01T01:49:13.888Z,6.56
2023-04-01T01:51:40.934Z,6.66
2023-04-01T01:54:18.364Z,6.67
2023-04-01T01:56:49.768Z,6.65
2023-04-01T01:59:18.929Z,6.47
2023-04-01T02:01:51.083Z,6.55
2023-04-01T02:04:19.352Z,6.50
2023-04-01T02:06:53.524Z,6.53
2023-04-01T02:09:20.825Z,6.55
2023-04-01T02:11:57.200Z,6.44
2023-04-01T02:14:27.895Z,6.53
2023-04-01T02:17:04.017Z,6.53
2023-04-01T02:19:38.615Z,6.34
2023-04-01T02:22:09.879Z,6.49
2023-04-01T02:24:38.959Z,6.43
2023-04-01T02:27:05.977Z,6.34
2023-04-01T02:29:33.215Z,6.38
2023-04-01T02:32:01.003Z,6.29
2023-04-01T02:34:28.125Z,6.39
2023-04-01T02:36:57.798Z,6.37
2023-04-01T02:39:26.640Z,6.35
2023-04-01T02:41:53.891Z,6.29
2023-04-01T02:44:20.728Z,6.52
2023-04-01T02:46:47.484Z,6.33
2023-04-01T02:49:14.098Z,6.40
2023-04-01T02:51:40.858Z,6.34
2023-04-01T02:54:07.729Z,6.25
2023-04-01T02:56:34.344Z,6.31
2023-04-01T02:59:01.045Z,6.27
2023-04-01T03:01:27.724Z,6.28
2023-04-01T03:03:54.629Z,6.17
2023-04-01T03:06:21.217Z,6.19
2023-04-01T03:08:47.905Z,6.13
2023-04-01T03:11:15.010Z,6.15
2023-04-01T03:13:42.248Z,6.13
2023-04-01T03:16:09.923Z,6.15
2023-04-01T03:18:36.598Z,6.05
2023-04-01T03:21:15.727Z,5.81
2023-04-01T03:23:42.359Z,5.90
2023-04-01T03:26:09.347Z,5.89
2023-04-01T03:28:36.399Z,5.79
2023-04-01T03:31:03.501Z,5.90
2023-04-01T03:33:37.416Z,5.96
2023-04-01T03:36:07.365Z,6.04
2023-04-01T03:38:35.736Z,5.97
2023-04-01T03:41:02.746Z,5.87
2023-04-01T03:43:30.243Z,5.92
2023-04-01T03:45:58.911Z,5.89
2023-04-01T03:48:26.729Z,5.93
2023-04-01T03:50:53.986Z,6.04
2023-04-01T03:53:20.879Z,6.10
2023-04-01T03:55:48.249Z,6.20
2023-04-01T03:58:15.658Z,6.15
2023-04-01T04:00:42.769Z,6.18
2023-04-01T04:03:10.537Z,6.04
2023-04-01T04:05:37.570Z,6.12
2023-04-01T04:08:04.795Z,6.33
2023-04-01T04:10:32.080Z,6.09
2023-04-01T04:12:58.858Z,6.14
2023-04-01T04:15:28.372Z,6.25
2023-04-01T04:17:55.088Z,6.29
2023-04-01T04:20:21.884Z,6.27
2023-04-01T04:22:48.766Z,6.27
2023-04-01T04:25:15.857Z,6.39
2023-04-01T04:27:42.705Z,6.24
2023-04-01T04:30:12.404Z,6.12
2023-04-01T04:32:39.357Z,6.14
2023-04-01T04:35:07.456Z,6.24
2023-04-01T04:37:34.797Z,6.53
2023-04-01T04:40:01.645Z,6.36
2023-04-01T04:42:29.184Z,6.47
2023-04-01T04:45:00.860Z,6.72
2023-04-01T04:47:27.983Z,6.67
2023-04-01T04:49:54.609Z,6.60
2023-04-01T04:52:21.364Z,6.72
2023-04-01T04:54:48.131Z,6.61
2023-04-01T04:57:14.992Z,6.63
2023-04-01T04:59:48.454Z,6.70
2023-04-01T05:02:26.373Z,6.65
2023-04-01T05:04:53.145Z,6.78
2023-04-01T05:07:19.837Z,6.76
2023-04-01T05:09:46.860Z,6.78
2023-04-01T05:12:14.457Z,6.83
2023-04-01T05:15:01.210Z,6.64
2023-04-01T05:17:28.436Z,6.63
2023-04-01T05:19:55.090Z,6.53
2023-04-01T05:22:21.741Z,6.66
2023-04-01T05:24:48.692Z,6.63
2023-04-01T05:27:15.475Z,6.78
2023-04-01T05:29:43.130Z,6.40
2023-04-01T05:32:25.616Z,6.44
2023-04-01T05:34:53.051Z,6.52
2023-04-01T05:37:20.359Z,6.44
2023-04-01T05:39:46.977Z,6.45
2023-04-01T05:42:13.916Z,6.59
2023-04-01T05:44:41.232Z,6.64
2023-04-01T05:47:07.979Z,6.79
2023-04-01T05:49:35.117Z,6.79
2023-04-01T05:52:02.838Z,6.86
2023-04-01T05:54:30.762Z,6.85
2023-04-01T05:56:57.450Z,6.95
2023-04-01T05:59:24.071Z,6.98
2023-04-01T06:01:51.334Z,6.81
2023-04-01T06:04:19.144Z,6.85
2023-04-01T06:06:46.691Z,6.97
2023-04-01T06:09:19.624Z,7.09
2023-04-01T06:12:11.028Z,7.10
2023-04-01T06:15:11.638Z,7.15
2023-04-01T06:17:54.040Z,7.12
2023-04-01T06:20:52.759Z,7.17
2023-04-01T06:23:45.614Z,7.30
2023-04-01T06:26:38.924Z,7.60
2023-04-01T06:29:44.247Z,7.53
2023-04-01T06:32:31.985Z,7.61
2023-04-01T06:35:17.766Z,7.74
2023-04-01T06:37:50.651Z,7.60
2023-04-01T06:40:42.489Z,7.62
2023-04-01T06:44:01.949Z,7.54
2023-04-01T06:47:04.639Z,7.54
2023-04-01T06:50:05.012Z,7.55
2023-04-01T06:53:11.389Z,7.54
2023-04-01T06:56:10.993Z,7.68
2023-04-01T06:58:58.800Z,7.58
2023-04-01T07:01:43.761Z,7.39
2023-04-01T07:04:20.525Z,7.57
2023-04-01T07:07:05.476Z,7.51
2023-04-01T07:09:36.528Z,7.60
2023-04-01T07:12:37.108Z,7.70
2023-04-01T07:15:37.589Z,7.59
2023-04-01T07:18:12.023Z,7.57
2023-04-01T07:20:39.562Z,7.79
2023-04-01T07:23:30.241Z,8.00
2023-04-01T07:26:25.273Z,8.11
2023-04-01T07:29:14.329Z,8.24
2023-04-01T07:31:49.693Z,8.48
2023-04-01T07:34:50.209Z,8.25
2023-04-01T07:37:46.712Z,8.28
2023-04-01T07:40:22.707Z,8.57
2023-04-01T07:43:04.520Z,8.53
2023-04-01T07:45:52.642Z,8.46
2023-04-01T07:48:44.261Z,8.55
2023-04-01T07:51:14.103Z,8.29
2023-04-01T07:53:59.153Z,8.38
2023-04-01T07:57:03.115Z,8.20
2023-04-01T08:00:10.479Z,8.39
2023-04-01T08:02:54.205Z,8.23
2023-04-01T08:05:28.492Z,8.52
2023-04-01T08:08:34.221Z,8.48
2023-04-01T08:11:43.176Z,8.72
2023-04-01T08:14:47.217Z,8.68
2023-04-01T08:17:22.645Z,8.73
2023-04-01T08:19:59.643Z,8.70
2023-04-01T08:22:36.457Z,9.06
2023-04-01T08:25:14.736Z,9.09
2023-04-01T08:28:11.526Z,9.01
2023-04-01T08:30:53.675Z,9.14
2023-04-01T08:33:31.152Z,9.13
2023-04-01T08:36:15.372Z,9.17
2023-04-01T08:38:52.923Z,9.12
2023-04-01T08:41:19.938Z,9.22
2023-04-01T08:44:37.593Z,9.51
2023-04-01T08:47:32.660Z,9.83
2023-04-01T08:50:25.930Z,9.73
2023-04-01T08:53:11.461Z,9.56
2023-04-01T08:56:04.687Z,9.69
2023-04-01T08:58:52.986Z,9.61
2023-04-01T09:01:59.169Z,10.02
2023-04-01T09:04:56.283Z,10.06
2023-04-01T09:07:42.313Z,10.14
2023-04-01T09:10:31.259Z,9.96
2023-04-01T09:13:14.377Z,9.87
2023-04-01T09:16:08.630Z,9.81
2023-04-01T09:18:50.045Z,9.82
2023-04-01T09:21:20.396Z,9.72
2023-04-01T09:23:59.475Z,9.88
2023-04-01T09:26:54.716Z,9.74
2023-04-01T09:29:53.791Z,9.99
2023-04-01T09:32:39.279Z,10.20
2023-04-01T09:35:26.646Z,10.27
2023-04-01T09:38:15.318Z,10.22
2023-04-01T09:40:57.579Z,10.36
2023-04-01T09:44:13.321Z,10.54
2023-04-01T09:47:08.265Z,10.82
2023-04-01T09:49:41.205Z,10.96
2023-04-01T09:52:16.084Z,10.86
2023-04-01T09:55:01.243Z,10.83
2023-04-01T09:57:39.714Z,10.42
2023-04-01T10:00:40.040Z,10.46
2023-04-01T10:03:41.927Z,10.31
2023-04-01T10:06:52.646Z,10.12
2023-04-01T10:09:29.887Z,10.20
2023-04-01T10:12:03.269Z,10.49
2023-04-01T10:14:53.881Z,10.38
2023-04-01T10:17:36.131Z,10.42
2023-04-01T10:20:38.276Z,10.54
2023-04-01T10:23:23.108Z,10.56
2023-04-01T10:26:08.058Z,10.55
2023-04-01T10:29:13.434Z,10.38
2023-04-01T10:32:17.030Z,10.09
2023-04-01T10:34:55.846Z,10.13
2023-04-01T10:37:59.974Z,9.96
2023-04-01T10:40:28.115Z,9.91
2023-04-01T10:43:28.602Z,9.65
2023-04-01T10:46:23.395Z,9.61
2023-04-01T10:49:29.346Z,9.22
2023-04-01T10:52:23.966Z,8.79
2023-04-01T10:56:11.877Z,9.15
2023-04-01T10:59:13.711Z,9.26
2023-04-01T11:02:21.203Z,9.30
2023-04-01T11:05:59.008Z,9.56
2023-04-01T11:08:34.174Z,9.60
2023-04-01T11:11:10.482Z,9.66
2023-04-01T11:14:15.998Z,9.62
2023-04-01T11:17:04.586Z,9.43
2023-04-01T11:19:31.611Z,9.17
2023-04-01T11:21:58.114Z,8.88
2023-04-01T11:25:05.396Z,8.63
2023-04-01T11:28:03.393Z,8.44
2023-04-01T11:31:08.313Z,8.25
2023-04-01T11:33:44.420Z,8.12
2023-04-01T11:36:29.657Z,7.93
2023-04-01T11:39:02.760Z,7.49
2023-04-01T11:42:10.524Z,7.37
2023-04-01T11:45:14.482Z,7.31
2023-04-01T11:48:00.776Z,7.21
2023-04-01T11:51:01.439Z,7.16
2023-04-01T11:53:38.918Z,7.05
2023-04-01T11:56:20.912Z,7.07
2023-04-01T11:58:56.899Z,7.09
2023-04-01T12:01:49.519Z,7.18
2023-04-01T12:04:37.882Z,7.05
2023-04-01T12:07:13.674Z,7.00
2023-04-01T12:09:50.754Z,7.08
2023-04-01T12:12:26.656Z,7.00
2023-04-01T12:15:18.071Z,7.02
2023-04-01T12:17:56.525Z,7.12
2023-04-01T12:20:31.605Z,7.02
2023-04-01T12:23:18.687Z,7.03
2023-04-01T12:26:13.397Z,7.08
2023-04-01T12:28:55.463Z,7.13
2023-04-01T12:31:34.220Z,7.24
2023-04-01T12:34:31.387Z,7.37
2023-04-01T12:37:13.877Z,7.30
2023-04-01T12:40:09.882Z,7.52
2023-04-01T12:42:55.119Z,7.37
2023-04-01T12:46:13.374Z,7.34
2023-04-01T12:49:12.082Z,7.37
2023-04-01T12:51:57.229Z,7.38
2023-04-01T12:54:37.716Z,7.30
2023-04-01T12:57:18.950Z,7.41
2023-04-01T13:00:09.376Z,7.38
2023-04-01T13:03:17.205Z,7.52
2023-04-01T13:06:25.078Z,7.45
2023-04-01T13:09:08.310Z,7.34
2023-04-01T13:12:24.073Z,7.14
2023-04-01T13:15:12.662Z,7.17
2023-04-01T13:17:48.420Z,7.19
2023-04-01T13:20:33.789Z,7.00
2023-04-01T13:23:22.442Z,7.16
2023-04-01T13:26:10.816Z,7.21
2023-04-01T13:29:03.319Z,6.96
2023-04-01T13:31:42.347Z,7.04
2023-04-01T13:34:38.524Z,7.00
2023-04-01T13:37:20.147Z,7.01
2023-04-01T13:40:16.860Z,7.05
2023-04-01T13:43:15.351Z,7.07
2023-04-01T13:46:04.056Z,6.96
2023-04-01T13:48:51.381Z,7.08
2023-04-01T13:51:24.113Z,7.20
2023-04-01T13:53:56.657Z,7.23
2023-04-01T13:56:53.989Z,7.33
2023-04-01T13:59:41.588Z,7.33
2023-04-01T14:02:32.818Z,7.40
2023-04-01T14:05:43.298Z,7.51
2023-04-01T14:08:29.336Z,7.58
2023-04-01T14:10:59.006Z,7.55
2023-04-01T14:13:40.416Z,7.77
2023-04-01T14:16:44.864Z,7.68
2023-04-01T14:19:47.727Z,7.76
2023-04-01T14:22:39.053Z,7.80
2023-04-01T14:25:30.524Z,7.85
2023-04-01T14:28:05.953Z,7.85
2023-04-01T14:31:04.936Z,7.77
2023-04-01T14:34:15.816Z,7.55
2023-04-01T14:37:16.020Z,7.64
2023-04-01T14:40:21.418Z,7.87
2023-04-01T14:43:10.933Z,7.86
2023-04-01T14:46:08.493Z,7.98
2023-04-01T14:48:44.286Z,8.03
2023-04-01T14:51:16.924Z,8.53
2023-04-01T14:54:04.561Z,8.60
2023-04-01T14:56:48.086Z,8.58
2023-04-01T14:59:40.006Z,8.70
2023-04-01T15:02:18.342Z,8.51
2023-04-01T15:05:06.606Z,8.82
2023-04-01T15:08:00.980Z,8.91
2023-04-01T15:10:50.626Z,9.09
2023-04-01T15:13:38.682Z,9.11
2023-04-01T15:16:11.396Z,9.09
2023-04-01T15:18:50.466Z,9.22
2023-04-01T15:21:35.004Z,9.41
2023-04-01T15:24:13.910Z,9.24
2023-04-01T15:26:49.414Z,9.38
2023-04-01T15:29:25.435Z,9.43
2023-04-01T15:32:02.169Z,9.47
2023-04-01T15:34:44.699Z,9.49
2023-04-01T15:37:40.081Z,9.59
2023-04-01T15:40:23.517Z,9.80
2023-04-01T15:43:14.427Z,9.59
2023-04-01T15:45:59.692Z,9.63
2023-04-01T15:48:34.752Z,9.68
2023-04-01T15:51:10.457Z,9.50
2023-04-01T15:53:55.505Z,9.42
2023-04-01T15:56:43.669Z,9.21
2023-04-01T15:59:34.253Z,9.11
2023-04-01T16:02:22.741Z,9.16
2023-04-01T16:04:51.972Z,9.08
2023-04-01T16:07:40.457Z,9.03
2023-04-01T16:10:07.199Z,8.94
2023-04-01T16:13:09.397Z,8.84
2023-04-01T16:15:45.637Z,8.86
2023-04-01T16:18:25.792Z,8.66
2023-04-01T16:21:02.269Z,8.52
2023-04-01T16:23:50.373Z,8.66
2023-04-01T16:26:27.594Z,8.67
2023-04-01T16:29:18.174Z,8.60
2023-04-01T16:31:52.649Z,8.76
2023-04-01T16:34:31.356Z,8.70
2023-04-01T16:37:16.841Z,8.54
2023-04-01T16:40:02.404Z,8.65
2023-04-01T16:42:32.178Z,8.63
2023-04-01T16:45:20.756Z,8.53
2023-04-01T16:47:53.988Z,8.44
2023-04-01T16:50:24.559Z,8.28
2023-04-01T16:53:12.199Z,8.37
2023-04-01T16:55:55.268Z,8.23
2023-04-01T16:58:26.465Z,8.30
2023-04-01T17:01:08.044Z,8.33
2023-04-01T17:03:44.709Z,8.23
2023-04-01T17:06:27.176Z,8.33
2023-04-01T17:09:30.179Z,8.38
2023-04-01T17:12:06.186Z,8.32
2023-04-01T17:15:02.550Z,8.31
2023-04-01T17:18:03.165Z,8.25
2023-04-01T17:20:30.008Z,8.23
2023-04-01T17:23:02.849Z,8.23
2023-04-01T17:25:47.708Z,8.25
2023-04-01T17:28:46.900Z,8.19
2023-04-01T17:31:36.572Z,8.37
2023-04-01T17:34:18.336Z,8.11
2023-04-01T17:37:01.989Z,8.04
2023-04-01T17:39:43.922Z,7.94
2023-04-01T17:42:20.465Z,8.01
2023-04-01T17:44:59.383Z,7.94
2023-04-01T17:47:26.244Z,8.09
2023-04-01T17:50:44.452Z,8.00
2023-04-01T17:53:32.339Z,7.83
2023-04-01T17:56:05.115Z,7.79
2023-04-01T17:58:46.299Z,7.84
2023-04-01T18:01:48.394Z,7.79
2023-04-01T18:04:44.413Z,7.82
2023-04-01T18:07:39.830Z,7.82
2023-04-01T18:10:24.912Z,7.74
2023-04-01T18:13:13.032Z,7.72
2023-04-01T18:16:09.409Z,7.91
2023-04-01T18:18:54.606Z,7.77
2023-04-01T18:21:30.562Z,7.73
2023-04-01T18:24:02.634Z,7.55
2023-04-01T18:26:34.328Z,7.51
2023-04-01T18:29:05.411Z,7.49
2023-04-01T18:31:44.322Z,7.44
2023-04-01T18:34:32.295Z,7.40
2023-04-01T18:37:19.899Z,7.32
2023-04-01T18:39:55.721Z,7.21
2023-04-01T18:42:25.449Z,7.21
2023-04-01T18:44:57.031Z,7.21
2023-04-01T18:47:44.624Z,7.12
2023-04-01T18:50:43.543Z,7.03
2023-04-01T18:53:35.373Z,7.03
2023-04-01T18:56:07.966Z,7.01
2023-04-01T18:59:13.025Z,6.94
2023-04-01T19:01:45.396Z,6.93
2023-04-01T19:04:22.352Z,7.03
2023-04-01T19:06:55.760Z,6.99
2023-04-01T19:09:27.585Z,6.84
2023-04-01T19:12:20.025Z,6.77
2023-04-01T19:15:09.949Z,6.90
2023-04-01T19:17:56.149Z,6.72
2023-04-01T19:20:25.883Z,6.77
2023-04-01T19:23:02.186Z,6.71
2023-04-01T19:25:33.661Z,6.77
2023-04-01T19:28:18.430Z,6.78
2023-04-01T19:31:03.559Z,6.74
2023-04-01T19:33:42.348Z,6.57
2023-04-01T19:36:27.550Z,6.56
2023-04-01T19:39:20.890Z,6.55
2023-04-01T19:41:52.671Z,6.49
2023-04-01T19:44:28.370Z,6.45
2023-04-01T19:47:17.119Z,6.50
2023-04-01T19:50:25.136Z,6.40
2023-04-01T19:52:55.909Z,6.29
2023-04-01T19:55:31.932Z,6.15
2023-04-01T19:57:58.800Z,6.31
2023-04-01T20:00:30.594Z,6.25
2023-04-01T20:02:57.101Z,6.04
2023-04-01T20:05:41.308Z,5.97
2023-04-01T20:08:26.984Z,5.91
2023-04-01T20:11:05.951Z,5.83
2023-04-01T20:13:39.461Z,5.79
2023-04-01T20:16:10.421Z,5.83
2023-04-01T20:18:49.817Z,5.76
2023-04-01T20:21:23.826Z,5.72
2023-04-01T20:24:07.367Z,5.68
2023-04-01T20:26:40.437Z,5.83
2023-04-01T20:29:25.932Z,5.74
2023-04-01T20:32:23.637Z,5.64
2023-04-01T20:34:55.113Z,5.78
2023-04-01T20:37:46.448Z,5.71
2023-04-01T20:40:41.313Z,5.76
2023-04-01T20:43:42.782Z,5.88
2023-04-01T20:46:18.096Z,5.85
2023-04-01T20:49:11.772Z,5.80
2023-04-01T20:51:48.892Z,5.80
2023-04-01T20:54:52.943Z,5.91
2023-04-01T20:57:52.526Z,5.89
2023-04-01T21:00:48.665Z,5.90
2023-04-01T21:03:35.431Z,5.98
2023-04-01T21:06:14.236Z,5.90
2023-04-01T21:08:56.090Z,5.96
2023-04-01T21:11:33.228Z,5.97
2023-04-01T21:14:12.290Z,5.84
2023-04-01T21:16:49.855Z,5.93
2023-04-01T21:19:22.431Z,5.91
2023-04-01T21:21:58.197Z,6.01
2023-04-01T21:24:30.926Z,6.04
2023-04-01T21:27:27.196Z,5.91
2023-04-01T21:30:32.422Z,5.85
2023-04-01T21:33:31.422Z,5.96
2023-04-01T21:36:01.282Z,5.94
2023-04-01T21:38:49.666Z,6.08
2023-04-01T21:41:19.227Z,6.17
2023-04-01T21:43:57.981Z,6.13
2023-04-01T21:46:39.701Z,6.22
2023-04-01T21:49:39.939Z,6.29
2023-04-01T21:52:21.740Z,6.51
2023-04-01T21:54:51.142Z,6.49
2023-04-01T21:57:39.510Z,6.37
2023-04-01T22:00:19.741Z,6.37
2023-04-01T22:03:04.165Z,6.45
2023-04-01T22:05:50.510Z,6.31
2023-04-01T22:08:46.191Z,6.44
2023-04-01T22:11:27.126Z,6.56
2023-04-01T22:14:42.916Z,6.60
2023-04-01T22:17:41.980Z,6.53
2023-04-01T22:20:24.960Z,6.58
2023-04-01T22:23:22.790Z,6.61
2023-04-01T22:26:06.662Z,6.66
2023-04-01T22:28:41.770Z,6.70
2023-04-01T22:31:13.458Z,6.61
2023-04-01T22:33:54.185Z,6.76
2023-04-01T22:36:33.925Z,6.68
2023-04-01T22:39:05.495Z,6.66
2023-04-01T22:41:58.915Z,6.68
2023-04-01T22:44:40.415Z,6.59
2023-04-01T22:47:31.623Z,6.73
2023-04-01T22:50:18.785Z,6.68
2023-04-01T22:52:49.373Z,6.78
2023-04-01T22:55:24.952Z,7.01
2023-04-01T22:57:58.069Z,6.70
2023-04-01T23:00:55.672Z,6.82
2023-04-01T23:03:28.533Z,6.75
2023-04-01T23:05:58.274Z,6.70
2023-04-01T23:08:43.359Z,6.47
2023-04-01T23:11:16.286Z,6.53
2023-04-01T23:13:49.430Z,6.54
2023-04-01T23:16:19.456Z,6.71
2023-04-01T23:19:10.731Z,6.75
2023-04-01T23:21:47.888Z,6.56
2023-04-01T23:24:31.021Z,6.54
2023-04-01T23:27:40.319Z,6.43
2023-04-01T23:30:39.420Z,6.51
2023-04-01T23:33:20.679Z,6.70
2023-04-01T23:35:49.785Z,6.58
2023-04-01T23:38:17.188Z,6.48
2023-04-01T23:40:44.153Z,6.44
2023-04-01T23:43:32.197Z,6.39
2023-04-01T23:46:04.423Z,6.60
2023-04-01T23:48:50.169Z,6.48
2023-04-01T23:51:39.929Z,6.59
2023-04-01T23:54:22.763Z,6.70
2023-04-01T23:56:53.542Z,6.55
2023-04-01T23:59:28.553Z,6.57
